createdAt,value
2018-11-07T00:01:53.817Z,55.56
2018-11-07T00:04:22.355Z,55.49
2018-11-07T00:06:50.714Z,55.57
2018-11-07T00:09:19.018Z,56.14
2018-11-07T00:11:47.325Z,56.17
2018-11-07T00:14:15.657Z,55.84
2018-11-07T00:16:43.945Z,55.70
2018-11-07T00:19:12.603Z,55.92
2018-11-07T00:21:40.937Z,55.94
2018-11-07T00:24:09.281Z,55.82
2018-11-07T00:26:37.661Z,55.95
2018-11-07T00:29:06.216Z,56.17
2018-11-07T00:31:35.357Z,56.13
2018-11-07T00:34:03.737Z,56.26
2018-11-07T00:36:32.217Z,56.38
2018-11-07T00:39:00.577Z,56.52
2018-11-07T00:41:29.053Z,56.62
2018-11-07T00:43:57.387Z,56.89
2018-11-07T00:46:25.719Z,57.10
2018-11-07T00:48:54.114Z,57.37
2018-11-07T00:51:22.505Z,57.30
2018-11-07T00:53:50.849Z,57.25
2018-11-07T00:56:19.233Z,57.41
2018-11-07T00:58:47.629Z,57.10
2018-11-07T01:01:16.517Z,57.08
2018-11-07T01:03:44.869Z,56.91
2018-11-07T01:06:13.417Z,57.09
2018-11-07T01:08:41.729Z,57.31
2018-11-07T01:11:10.121Z,57.41
2018-11-07T01:13:38.489Z,57.71
2018-11-07T01:16:08.382Z,57.56
2018-11-07T01:18:37.118Z,57.55
2018-11-07T01:21:05.926Z,57.70
2018-11-07T01:23:34.533Z,57.86
2018-11-07T01:26:02.797Z,57.90
2018-11-07T01:28:31.241Z,57.66
2018-11-07T01:30:59.595Z,57.54
2018-11-07T01:33:27.871Z,57.65
2018-11-07T01:35:56.281Z,57.89
2018-11-07T01:38:24.733Z,58.35
2018-11-07T01:40:53.130Z,58.50
2018-11-07T01:43:21.430Z,58.72
2018-11-07T01:45:49.797Z,58.80
2018-11-07T01:48:18.550Z,58.88
2018-11-07T01:50:47.009Z,58.75
2018-11-07T01:53:15.318Z,58.80
2018-11-07T01:55:43.801Z,58.66
2018-11-07T01:58:12.102Z,58.70
2018-11-07T02:00:40.441Z,58.60
2018-11-07T02:03:08.753Z,58.56
2018-11-07T02:05:37.543Z,58.41
2018-11-07T02:08:06.751Z,58.51
2018-11-07T02:10:35.047Z,58.87
2018-11-07T02:13:03.464Z,59.11
2018-11-07T02:15:31.843Z,58.85
2018-11-07T02:18:00.216Z,58.53
2018-11-07T02:20:29.398Z,58.64
2018-11-07T02:22:57.689Z,58.64
2018-11-07T02:25:26.052Z,58.36
2018-11-07T02:27:55.239Z,58.42
2018-11-07T02:30:23.558Z,58.67
2018-11-07T02:32:51.915Z,58.98
2018-11-07T02:35:20.315Z,59.00
2018-11-07T02:37:48.779Z,59.05
2018-11-07T02:40:17.191Z,59.39
2018-11-07T02:42:46.069Z,59.59
2018-11-07T02:45:14.437Z,59.45
2018-11-07T02:47:42.921Z,59.13
2018-11-07T02:50:12.179Z,59.23
2018-11-07T02:52:40.836Z,59.02
2018-11-07T02:55:09.441Z,59.03
2018-11-07T02:57:38.177Z,59.18
2018-11-07T03:00:09.755Z,59.27
2018-11-07T03:02:38.141Z,59.27
2018-11-07T03:05:06.497Z,59.59
2018-11-07T03:07:34.875Z,59.79
2018-11-07T03:10:03.314Z,60.08
2018-11-07T03:12:31.636Z,59.79
2018-11-07T03:14:59.921Z,59.79
2018-11-07T03:17:28.207Z,59.69
2018-11-07T03:19:56.581Z,59.62
2018-11-07T03:22:24.861Z,59.75
2018-11-07T03:24:53.164Z,59.69
2018-11-07T03:27:21.501Z,59.71
2018-11-07T03:29:49.963Z,59.68
2018-11-07T03:32:18.833Z,59.76
2018-11-07T03:34:47.278Z,59.85
2018-11-07T03:37:15.610Z,60.14
2018-11-07T03:39:44.157Z,60.05
2018-11-07T03:42:12.524Z,60.15
2018-11-07T03:44:40.838Z,60.38
2018-11-07T03:47:09.154Z,60.55
2018-11-07T03:49:37.542Z,60.60
2018-11-07T03:52:05.907Z,60.51
2018-11-07T03:54:51.338Z,60.94
2018-11-07T03:57:19.681Z,61.25
2018-11-07T03:59:48.064Z,60.89
2018-11-07T04:02:16.471Z,60.98
2018-11-07T04:04:44.922Z,60.64
2018-11-07T04:07:13.258Z,60.63
2018-11-07T04:09:41.626Z,60.42
2018-11-07T04:12:11.146Z,60.59
2018-11-07T04:14:39.614Z,60.69
2018-11-07T04:17:08.294Z,60.58
2018-11-07T04:19:36.681Z,60.69
2018-11-07T04:22:05.130Z,60.84
2018-11-07T04:24:33.455Z,60.83
2018-11-07T04:27:01.922Z,61.04
2018-11-07T04:29:30.400Z,61.07
2018-11-07T04:31:58.986Z,61.06
2018-11-07T04:34:27.349Z,61.20
2018-11-07T04:36:55.641Z,61.17
2018-11-07T04:39:24.134Z,60.65
2018-11-07T04:41:52.689Z,61.02
2018-11-07T04:44:21.639Z,61.64
2018-11-07T04:46:50.671Z,61.72
2018-11-07T04:49:18.939Z,62.03
2018-11-07T04:51:47.386Z,61.85
2018-11-07T04:54:16.614Z,61.83
2018-11-07T04:56:44.876Z,61.50
2018-11-07T04:59:13.157Z,61.57
2018-11-07T05:01:41.469Z,61.27
2018-11-07T05:04:09.849Z,61.13
2018-11-07T05:06:38.213Z,61.32
2018-11-07T05:09:08.042Z,61.33
2018-11-07T05:11:36.401Z,61.41
2018-11-07T05:14:05.123Z,61.47
2018-11-07T05:16:33.902Z,61.69
2018-11-07T05:19:02.260Z,61.93
2018-11-07T05:21:30.629Z,61.71
2018-11-07T05:23:59.056Z,61.83
2018-11-07T05:26:28.194Z,62.09
2018-11-07T05:28:56.456Z,62.37
2018-11-07T05:31:25.077Z,62.26
2018-11-07T05:33:53.583Z,62.07
2018-11-07T05:36:22.540Z,61.89
2018-11-07T05:38:50.944Z,61.81
2018-11-07T05:41:19.865Z,61.85
2018-11-07T05:43:48.292Z,61.81
2018-11-07T05:46:16.691Z,61.96
2018-11-07T05:48:45.657Z,62.06
2018-11-07T05:51:14.051Z,62.14
2018-11-07T05:53:42.750Z,62.25
2018-11-07T05:56:11.229Z,62.12
2018-11-07T05:58:39.594Z,62.15
2018-11-07T06:01:08.220Z,62.13
2018-11-07T06:03:36.509Z,62.63
2018-11-07T06:06:05.343Z,62.55
2018-11-07T06:08:33.846Z,62.49
2018-11-07T06:11:02.281Z,62.46
2018-11-07T06:13:30.585Z,62.46
2018-11-07T06:15:59.276Z,62.24
2018-11-07T06:18:27.657Z,62.29
2018-11-07T06:20:55.962Z,62.21
2018-11-07T06:23:24.339Z,62.19
2018-11-07T06:25:52.694Z,62.28
2018-11-07T06:28:20.983Z,62.70
2018-11-07T06:30:49.541Z,62.83
2018-11-07T06:33:17.835Z,63.12
2018-11-07T06:35:46.267Z,62.80
2018-11-07T06:38:14.781Z,62.69
2018-11-07T06:40:43.066Z,62.86
2018-11-07T06:43:11.459Z,62.87
2018-11-07T06:45:40.037Z,63.06
2018-11-07T06:48:08.307Z,62.83
2018-11-07T06:50:36.587Z,62.59
2018-11-07T06:53:05.261Z,62.41
2018-11-07T06:55:33.568Z,62.64
2018-11-07T06:58:01.850Z,62.66
2018-11-07T07:00:33.783Z,62.67
2018-11-07T07:03:03.299Z,62.46
2018-11-07T07:05:32.149Z,62.35
2018-11-07T07:08:00.753Z,62.36
2018-11-07T07:10:29.198Z,62.25
2018-11-07T07:12:57.497Z,62.11
2018-11-07T07:15:26.074Z,61.92
2018-11-07T07:17:54.373Z,61.84
2018-11-07T07:20:22.668Z,61.92
2018-11-07T07:22:51.062Z,62.31
2018-11-07T07:25:19.410Z,62.19
2018-11-07T07:27:48.122Z,62.13
2018-11-07T07:30:18.006Z,62.31
2018-11-07T07:32:46.860Z,62.35
2018-11-07T07:35:15.746Z,62.63
2018-11-07T07:37:44.178Z,62.73
2018-11-07T07:40:13.562Z,62.82
2018-11-07T07:42:43.704Z,63.00
2018-11-07T07:45:14.866Z,62.89
2018-11-07T07:47:43.936Z,62.75
2018-11-07T07:50:13.448Z,62.70
2018-11-07T07:52:42.612Z,62.85
2018-11-07T07:55:11.783Z,62.89
2018-11-07T07:57:40.843Z,62.69
2018-11-07T08:00:13.663Z,62.33
2018-11-07T08:02:45.278Z,62.48
2018-11-07T08:05:14.162Z,62.70
2018-11-07T08:07:43.146Z,62.79
2018-11-07T08:10:13.118Z,62.64
2018-11-07T08:12:42.076Z,62.62
2018-11-07T08:15:11.240Z,62.80
2018-11-07T08:17:40.513Z,62.89
2018-11-07T08:20:10.780Z,62.89
2018-11-07T08:22:39.108Z,63.16
2018-11-07T08:25:08.355Z,63.43
2018-11-07T08:27:36.707Z,63.55
2018-11-07T08:30:06.714Z,63.77
2018-11-07T08:32:35.462Z,63.74
2018-11-07T08:35:03.758Z,63.73
2018-11-07T08:37:32.090Z,64.00
2018-11-07T08:40:00.435Z,63.79
2018-11-07T08:42:28.828Z,63.66
2018-11-07T08:44:57.040Z,63.78
2018-11-07T08:47:25.360Z,63.87
2018-11-07T08:49:53.679Z,63.93
2018-11-07T08:52:21.995Z,64.11
2018-11-07T08:54:50.345Z,64.04
2018-11-07T08:57:18.670Z,63.87
2018-11-07T08:59:47.099Z,64.08
2018-11-07T09:02:15.443Z,64.05
2018-11-07T09:04:43.698Z,64.03
2018-11-07T09:07:12.070Z,64.25
2018-11-07T09:09:40.363Z,64.15
2018-11-07T09:12:08.917Z,64.17
2018-11-07T09:14:37.246Z,64.16
2018-11-07T09:17:06.251Z,64.07
2018-11-07T09:19:35.022Z,63.94
2018-11-07T09:22:03.319Z,64.13
2018-11-07T09:24:31.835Z,64.03
2018-11-07T09:27:00.165Z,63.82
2018-11-07T09:29:28.563Z,64.02
2018-11-07T09:31:56.843Z,63.65
2018-11-07T09:34:25.141Z,63.62
2018-11-07T09:36:53.454Z,63.37
2018-11-07T09:39:21.842Z,63.25
2018-11-07T09:41:50.319Z,63.41
2018-11-07T09:44:18.745Z,63.28
2018-11-07T09:46:47.070Z,63.11
2018-11-07T09:49:16.060Z,62.83
2018-11-07T09:51:44.486Z,62.82
2018-11-07T09:54:12.781Z,62.48
2018-11-07T09:56:41.057Z,62.68
2018-11-07T09:59:09.484Z,62.67
2018-11-07T10:01:37.862Z,62.26
2018-11-07T10:04:06.229Z,62.35
2018-11-07T10:06:34.597Z,62.31
2018-11-07T10:09:02.851Z,62.70
2018-11-07T10:11:31.181Z,62.22
2018-11-07T10:13:59.579Z,61.88
2018-11-07T10:16:27.908Z,62.25
2018-11-07T10:18:56.299Z,61.86
2018-11-07T10:21:24.706Z,61.67
2018-11-07T10:23:53.054Z,61.08
2018-11-07T10:26:21.429Z,60.54
2018-11-07T10:28:50.079Z,60.61
2018-11-07T10:31:18.199Z,60.10
2018-11-07T10:33:46.466Z,59.81
2018-11-07T10:36:14.887Z,59.53
2018-11-07T10:38:43.351Z,58.86
2018-11-07T10:41:11.482Z,58.85
2018-11-07T10:43:39.856Z,58.54
2018-11-07T10:46:08.209Z,58.38
2018-11-07T10:48:36.441Z,58.09
2018-11-07T10:51:04.846Z,58.33
2018-11-07T10:53:33.190Z,58.25
2018-11-07T10:56:01.501Z,58.25
2018-11-07T10:58:30.151Z,58.17
2018-11-07T11:01:03.839Z,57.99
2018-11-07T11:03:32.828Z,57.86
2018-11-07T11:06:01.120Z,58.01
2018-11-07T11:08:29.426Z,57.58
2018-11-07T11:10:58.094Z,57.35
2018-11-07T11:13:26.702Z,57.29
2018-11-07T11:15:55.111Z,57.39
2018-11-07T11:18:23.842Z,56.92
2018-11-07T11:20:52.201Z,56.73
2018-11-07T11:23:20.578Z,56.24
2018-11-07T11:25:49.055Z,55.79
2018-11-07T11:28:17.302Z,55.71
2018-11-07T11:30:45.644Z,55.83
2018-11-07T11:33:13.930Z,54.78
2018-11-07T11:35:42.258Z,54.20
2018-11-07T11:38:10.558Z,53.61
2018-11-07T11:40:39.057Z,53.54
2018-11-07T11:43:07.411Z,53.51
2018-11-07T11:45:35.858Z,53.49
2018-11-07T11:48:04.234Z,53.70
2018-11-07T11:50:32.642Z,54.05
2018-11-07T11:53:01.020Z,53.73
2018-11-07T11:55:29.445Z,53.89
2018-11-07T11:57:58.406Z,53.63
2018-11-07T12:00:26.821Z,53.80
2018-11-07T12:02:55.262Z,53.91
2018-11-07T12:05:23.947Z,53.75
2018-11-07T12:07:52.318Z,53.20
2018-11-07T12:10:22.914Z,53.41
2018-11-07T12:12:52.538Z,53.29
2018-11-07T12:15:22.203Z,53.46
2018-11-07T12:17:51.557Z,53.50
2018-11-07T12:20:19.979Z,53.29
2018-11-07T12:22:48.330Z,53.08
2018-11-07T12:25:17.782Z,53.35
2018-11-07T12:27:46.139Z,52.69
2018-11-07T12:30:16.683Z,52.88
2018-11-07T12:32:46.230Z,53.20
2018-11-07T12:35:15.210Z,52.84
2018-11-07T12:37:43.582Z,52.57
2018-11-07T12:40:12.728Z,52.10
2018-11-07T12:42:41.138Z,51.76
2018-11-07T12:45:11.447Z,51.46
2018-11-07T12:47:40.030Z,51.31
2018-11-07T12:50:10.636Z,51.07
2018-11-07T12:52:38.967Z,51.35
2018-11-07T12:55:08.672Z,51.27
2018-11-07T12:57:37.373Z,51.52
2018-11-07T13:00:08.316Z,51.75
2018-11-07T13:02:36.744Z,51.80
2018-11-07T13:05:06.067Z,51.63
2018-11-07T13:07:34.465Z,51.63
2018-11-07T13:10:02.928Z,51.91
2018-11-07T13:12:31.247Z,52.07
2018-11-07T13:14:59.867Z,52.03
2018-11-07T13:17:28.325Z,52.33
2018-11-07T13:19:56.798Z,52.12
2018-11-07T13:22:25.212Z,52.07
2018-11-07T13:24:53.493Z,52.08
2018-11-07T13:27:21.825Z,52.33
2018-11-07T13:29:50.202Z,52.39
2018-11-07T13:32:18.799Z,52.10
2018-11-07T13:34:47.180Z,52.08
2018-11-07T13:37:15.805Z,52.15
2018-11-07T13:39:43.949Z,52.11
2018-11-07T13:42:13.115Z,51.74
2018-11-07T13:44:41.519Z,51.96
2018-11-07T13:47:09.917Z,52.07
2018-11-07T13:49:38.795Z,52.02
2018-11-07T13:52:07.333Z,52.01
2018-11-07T13:54:35.685Z,52.01
2018-11-07T13:57:04.035Z,52.25
2018-11-07T13:59:32.463Z,52.06
2018-11-07T14:02:00.793Z,52.02
2018-11-07T14:04:29.145Z,52.19
2018-11-07T14:06:57.583Z,51.59
2018-11-07T14:09:26.213Z,52.07
2018-11-07T14:11:54.975Z,51.68
2018-11-07T14:14:23.414Z,51.55
2018-11-07T14:16:51.965Z,51.06
2018-11-07T14:19:20.909Z,50.82
2018-11-07T14:21:49.262Z,50.05
2018-11-07T14:24:17.624Z,49.72
2018-11-07T14:26:46.069Z,50.19
2018-11-07T14:29:15.646Z,49.93
2018-11-07T14:31:44.100Z,50.42
2018-11-07T14:34:12.840Z,50.59
2018-11-07T14:36:41.162Z,51.49
2018-11-07T14:39:10.693Z,51.39
2018-11-07T14:41:39.137Z,52.16
2018-11-07T14:44:08.157Z,52.33
2018-11-07T14:46:36.554Z,52.86
2018-11-07T14:49:05.101Z,52.92
2018-11-07T14:51:33.425Z,53.00
2018-11-07T14:54:01.825Z,53.34
2018-11-07T14:56:30.715Z,53.50
2018-11-07T14:58:59.105Z,53.99
2018-11-07T15:01:27.667Z,54.29
2018-11-07T15:03:55.947Z,54.64
2018-11-07T15:06:24.271Z,54.91
2018-11-07T15:08:52.714Z,54.80
2018-11-07T15:11:21.045Z,54.83
2018-11-07T15:13:49.387Z,55.11
2018-11-07T15:16:17.684Z,55.43
2018-11-07T15:18:46.043Z,55.52
2018-11-07T15:21:14.365Z,55.48
2018-11-07T15:23:42.730Z,56.17
2018-11-07T15:26:11.053Z,56.44
2018-11-07T15:28:39.344Z,56.42
2018-11-07T15:31:07.718Z,56.37
2018-11-07T15:33:36.090Z,56.56
2018-11-07T15:36:04.566Z,56.64
2018-11-07T15:38:32.817Z,57.35
2018-11-07T15:41:01.124Z,57.42
2018-11-07T15:43:29.969Z,57.31
2018-11-07T15:45:58.199Z,57.03
2018-11-07T15:48:26.541Z,57.17
2018-11-07T15:51:00.615Z,57.25
2018-11-07T15:53:29.061Z,57.40
2018-11-07T15:55:57.358Z,57.24
2018-11-07T15:58:25.763Z,57.46
2018-11-07T16:00:54.095Z,57.66
2018-11-07T16:03:27.827Z,57.66
2018-11-07T16:05:56.210Z,57.67
2018-11-07T16:08:24.489Z,58.11
2018-11-07T16:10:52.823Z,58.25
2018-11-07T16:13:21.276Z,58.28
2018-11-07T16:15:49.617Z,58.77
2018-11-07T16:18:17.966Z,59.06
2018-11-07T16:20:46.420Z,59.38
2018-11-07T16:23:15.166Z,59.63
2018-11-07T16:25:43.564Z,59.88
2018-11-07T16:28:11.901Z,59.95
2018-11-07T16:30:40.897Z,60.38
2018-11-07T16:33:09.487Z,60.19
2018-11-07T16:35:37.834Z,59.75
2018-11-07T16:38:06.244Z,60.11
2018-11-07T16:40:34.817Z,60.00
2018-11-07T16:43:03.181Z,59.96
2018-11-07T16:45:31.461Z,60.32
2018-11-07T16:48:00.047Z,60.20
2018-11-07T16:50:28.339Z,60.19
2018-11-07T16:52:56.712Z,60.34
2018-11-07T16:55:25.832Z,60.31
2018-11-07T16:57:54.134Z,60.64
2018-11-07T17:00:22.467Z,61.00
2018-11-07T17:02:51.051Z,61.55
2018-11-07T17:05:19.943Z,61.56
2018-11-07T17:07:48.691Z,61.47
2018-11-07T17:10:18.522Z,61.15
2018-11-07T17:12:46.904Z,61.13
2018-11-07T17:15:15.304Z,61.35
2018-11-07T17:17:43.642Z,61.77
2018-11-07T17:20:13.287Z,61.55
2018-11-07T17:22:42.024Z,61.97
2018-11-07T17:25:12.954Z,61.46
2018-11-07T17:27:41.755Z,61.50
2018-11-07T17:30:11.207Z,61.76
2018-11-07T17:32:39.778Z,61.85
2018-11-07T17:35:09.990Z,61.68
2018-11-07T17:37:38.371Z,62.60
2018-11-07T17:40:10.315Z,62.05
2018-11-07T17:42:38.886Z,62.33
2018-11-07T17:45:10.091Z,62.62
2018-11-07T17:47:38.838Z,63.11
2018-11-07T17:50:08.174Z,63.36
2018-11-07T17:52:37.566Z,63.32
2018-11-07T17:55:06.770Z,63.06
2018-11-07T17:57:35.107Z,63.50
2018-11-07T18:00:03.539Z,63.98
2018-11-07T18:02:32.499Z,64.25
2018-11-07T18:05:00.978Z,64.25
2018-11-07T18:07:29.366Z,64.35
2018-11-07T18:09:57.781Z,64.64
2018-11-07T18:12:26.418Z,64.10
2018-11-07T18:14:54.826Z,64.17
2018-11-07T18:17:23.582Z,64.49
2018-11-07T18:19:52.441Z,64.02
2018-11-07T18:22:20.735Z,64.70
2018-11-07T18:24:49.330Z,65.11
2018-11-07T18:27:17.739Z,65.07
2018-11-07T18:29:46.276Z,64.71
2018-11-07T18:32:14.715Z,64.71
2018-11-07T18:34:43.067Z,65.25
2018-11-07T18:37:11.435Z,65.73
2018-11-07T18:39:40.122Z,66.24
2018-11-07T18:42:08.419Z,66.67
2018-11-07T18:44:36.752Z,67.11
2018-11-07T18:47:05.483Z,67.07
2018-11-07T18:49:33.900Z,67.28
2018-11-07T18:52:02.314Z,67.42
2018-11-07T18:54:30.725Z,67.08
2018-11-07T18:56:59.138Z,67.02
2018-11-07T18:59:28.290Z,66.71
2018-11-07T19:01:56.703Z,66.08
2018-11-07T19:04:25.238Z,65.66
2018-11-07T19:06:53.609Z,65.83
2018-11-07T19:09:21.927Z,65.43
2018-11-07T19:11:50.212Z,65.42
2018-11-07T19:14:18.734Z,65.29
2018-11-07T19:16:47.388Z,65.36
2018-11-07T19:19:15.686Z,65.39
2018-11-07T19:21:44.098Z,65.43
2018-11-07T19:24:12.498Z,65.38
2018-11-07T19:26:41.095Z,65.56
2018-11-07T19:29:09.421Z,65.74
2018-11-07T19:31:37.838Z,66.18
2018-11-07T19:34:06.983Z,66.20
2018-11-07T19:36:35.487Z,66.21
2018-11-07T19:39:06.685Z,66.35
2018-11-07T19:41:34.985Z,66.60
2018-11-07T19:44:03.390Z,66.73
2018-11-07T19:46:31.802Z,66.86
2018-11-07T19:49:00.138Z,66.70
2018-11-07T19:51:29.213Z,66.81
2018-11-07T19:53:57.739Z,66.94
2018-11-07T19:56:26.587Z,66.43
2018-11-07T19:58:55.266Z,66.46
2018-11-07T20:01:23.702Z,66.30
2018-11-07T20:03:52.074Z,66.25
2018-11-07T20:06:20.522Z,66.10
2018-11-07T20:08:48.937Z,66.10
2018-11-07T20:11:17.354Z,66.28
2018-11-07T20:13:45.865Z,66.49
2018-11-07T20:16:15.593Z,65.99
2018-11-07T20:18:43.958Z,66.05
2018-11-07T20:21:12.350Z,66.23
2018-11-07T20:23:40.752Z,66.37
2018-11-07T20:26:09.042Z,66.47
2018-11-07T20:28:37.435Z,66.52
2018-11-07T20:31:06.182Z,66.12
2018-11-07T20:33:34.566Z,66.18
2018-11-07T20:36:03.600Z,66.41
2018-11-07T20:38:32.219Z,66.53
2018-11-07T20:41:00.518Z,66.30
2018-11-07T20:43:28.934Z,66.50
2018-11-07T20:45:57.308Z,66.62
2018-11-07T20:48:26.234Z,66.81
2018-11-07T20:50:54.528Z,66.72
2018-11-07T20:53:23.610Z,66.72
2018-11-07T20:55:51.998Z,66.58
2018-11-07T20:58:20.462Z,66.46
2018-11-07T21:00:48.801Z,66.46
2018-11-07T21:03:17.245Z,66.51
2018-11-07T21:05:45.575Z,66.65
2018-11-07T21:08:13.928Z,66.45
2018-11-07T21:10:42.238Z,66.41
2018-11-07T21:13:10.526Z,66.45
2018-11-07T21:15:38.869Z,66.69
2018-11-07T21:18:07.282Z,66.57
2018-11-07T21:20:35.759Z,66.46
2018-11-07T21:23:04.062Z,66.44
2018-11-07T21:25:32.419Z,66.29
2018-11-07T21:28:00.823Z,66.52
2018-11-07T21:30:29.138Z,66.96
2018-11-07T21:32:57.459Z,66.76
2018-11-07T21:35:27.181Z,66.42
2018-11-07T21:37:55.568Z,66.40
2018-11-07T21:40:23.929Z,66.63
2018-11-07T21:42:52.673Z,66.99
2018-11-07T21:45:21.019Z,67.08
2018-11-07T21:47:49.384Z,66.80
2018-11-07T21:50:17.974Z,67.18
2018-11-07T21:52:46.572Z,67.20
2018-11-07T21:55:15.014Z,66.78
2018-11-07T21:57:43.804Z,67.23
2018-11-07T22:00:14.757Z,67.52
2018-11-07T22:02:43.487Z,67.27
2018-11-07T22:05:12.609Z,66.94
2018-11-07T22:07:41.197Z,66.81
2018-11-07T22:10:10.657Z,66.95
2018-11-07T22:12:39.220Z,66.64
2018-11-07T22:15:08.335Z,66.59
2018-11-07T22:17:36.738Z,66.86
2018-11-07T22:20:07.963Z,67.23
2018-11-07T22:22:36.297Z,67.31
2018-11-07T22:25:04.841Z,67.37
2018-11-07T22:27:33.129Z,67.11
2018-11-07T22:30:01.545Z,67.32
2018-11-07T22:32:29.843Z,67.58
2018-11-07T22:34:58.117Z,67.52
2018-11-07T22:37:26.769Z,67.46
2018-11-07T22:39:56.645Z,67.46
2018-11-07T22:42:24.925Z,67.62
2018-11-07T22:44:53.437Z,67.39
2018-11-07T22:47:21.825Z,67.12
2018-11-07T22:49:50.129Z,66.61
2018-11-07T22:52:18.521Z,66.43
2018-11-07T22:54:46.861Z,66.92
2018-11-07T22:57:15.157Z,66.79
2018-11-07T22:59:43.474Z,67.10
2018-11-07T23:02:11.879Z,67.40
2018-11-07T23:04:40.254Z,67.42
2018-11-07T23:07:08.630Z,67.55
2018-11-07T23:09:36.898Z,67.58
2018-11-07T23:12:05.633Z,67.69
2018-11-07T23:14:33.934Z,67.96
2018-11-07T23:17:02.458Z,68.20
2018-11-07T23:19:30.917Z,68.52
2018-11-07T23:21:59.418Z,68.82
2018-11-07T23:24:27.793Z,68.45
2018-11-07T23:26:56.147Z,67.98
2018-11-07T23:29:24.476Z,67.73
2018-11-07T23:31:52.826Z,67.61
2018-11-07T23:34:21.814Z,67.46
2018-11-07T23:36:50.129Z,67.62
2018-11-07T23:39:18.420Z,67.78
2018-11-07T23:41:46.682Z,67.85
2018-11-07T23:44:15.558Z,67.82
2018-11-07T23:46:43.955Z,68.03
2018-11-07T23:49:12.285Z,68.03
2018-11-07T23:51:45.976Z,68.27
2018-11-07T23:54:14.379Z,68.24
2018-11-07T23:56:42.749Z,68.09
2018-11-07T23:59:11.167Z,67.84
